sensor_id;sensor_type;location;lat;lon;timestamp;P1;durP1;ratioP1;P2;durP2;ratioP2
58898;SDS011;44680;48.342;7.856;2023-02-15T00:01:41;71.15;;;17.58;;
58898;SDS011;44680;48.342;7.856;2023-02-15T00:04:07;45.30;;;17.17;;
58898;SDS011;44680;48.342;7.856;2023-02-15T00:06:33;59.85;;;16.95;;
58898;SDS011;44680;48.342;7.856;2023-02-15T00:08:58;40.72;;;17.65;;
58898;SDS011;44680;48.342;7.856;2023-02-15T00:11:24;50.80;;;17.58;;
58898;SDS011;44680;48.342;7.856;2023-02-15T00:14:05;41.30;;;17.75;;
58898;SDS011;44680;48.342;7.856;2023-02-15T00:16:41;39.10;;;17.45;;
58898;SDS011;44680;48.342;7.856;2023-02-15T00:19:08;43.15;;;18.05;;
58898;SDS011;44680;48.342;7.856;2023-02-15T00:21:34;45.38;;;17.33;;
58898;SDS011;44680;48.342;7.856;2023-02-15T00:24:00;49.22;;;17.10;;
58898;SDS011;44680;48.342;7.856;2023-02-15T00:26:28;52.67;;;17.35;;
58898;SDS011;44680;48.342;7.856;2023-02-15T00:28:53;49.10;;;16.75;;
58898;SDS011;44680;48.342;7.856;2023-02-15T00:31:20;57.47;;;17.85;;
58898;SDS011;44680;48.342;7.856;2023-02-15T00:33:46;40.42;;;17.17;;
58898;SDS011;44680;48.342;7.856;2023-02-15T00:36:11;34.72;;;16.20;;
58898;SDS011;44680;48.342;7.856;2023-02-15T00:41:59;46.97;;;17.52;;
58898;SDS011;44680;48.342;7.856;2023-02-15T00:44:24;65.60;;;17.60;;
58898;SDS011;44680;48.342;7.856;2023-02-15T00:46:49;73.70;;;18.13;;
58898;SDS011;44680;48.342;7.856;2023-02-15T00:49:14;41.33;;;18.25;;
58898;SDS011;44680;48.342;7.856;2023-02-15T00:51:40;34.55;;;17.02;;
58898;SDS011;44680;48.342;7.856;2023-02-15T00:54:05;34.67;;;17.90;;
58898;SDS011;44680;48.342;7.856;2023-02-15T00:56:31;40.10;;;17.58;;
58898;SDS011;44680;48.342;7.856;2023-02-15T00:58:56;38.92;;;17.65;;
58898;SDS011;44680;48.342;7.856;2023-02-15T01:01:21;36.22;;;18.10;;
58898;SDS011;44680;48.342;7.856;2023-02-15T01:03:48;35.42;;;17.65;;
58898;SDS011;44680;48.342;7.856;2023-02-15T01:06:14;40.08;;;17.73;;
58898;SDS011;44680;48.342;7.856;2023-02-15T01:08:40;34.13;;;16.92;;
58898;SDS011;44680;48.342;7.856;2023-02-15T01:11:06;36.85;;;17.08;;
58898;SDS011;44680;48.342;7.856;2023-02-15T01:13:34;35.05;;;17.25;;
58898;SDS011;44680;48.342;7.856;2023-02-15T01:16:00;32.75;;;17.20;;
58898;SDS011;44680;48.342;7.856;2023-02-15T01:18:25;33.92;;;16.77;;
58898;SDS011;44680;48.342;7.856;2023-02-15T01:20:51;33.30;;;16.73;;
58898;SDS011;44680;48.342;7.856;2023-02-15T01:23:17;36.17;;;17.58;;
58898;SDS011;44680;48.342;7.856;2023-02-15T01:25:42;35.40;;;16.05;;
58898;SDS011;44680;48.342;7.856;2023-02-15T01:28:07;32.95;;;16.02;;
58898;SDS011;44680;48.342;7.856;2023-02-15T01:30:33;34.85;;;15.35;;
58898;SDS011;44680;48.342;7.856;2023-02-15T01:32:58;32.75;;;15.65;;
58898;SDS011;44680;48.342;7.856;2023-02-15T01:35:25;32.78;;;16.35;;
58898;SDS011;44680;48.342;7.856;2023-02-15T01:37:50;38.03;;;17.02;;
58898;SDS011;44680;48.342;7.856;2023-02-15T01:40:16;38.70;;;17.08;;
58898;SDS011;44680;48.342;7.856;2023-02-15T01:42:42;38.72;;;17.17;;
58898;SDS011;44680;48.342;7.856;2023-02-15T01:45:27;42.78;;;17.15;;
58898;SDS011;44680;48.342;7.856;2023-02-15T01:50:25;36.25;;;18.02;;
58898;SDS011;44680;48.342;7.856;2023-02-15T01:52:57;36.22;;;17.45;;
58898;SDS011;44680;48.342;7.856;2023-02-15T01:55:25;55.03;;;17.15;;
58898;SDS011;44680;48.342;7.856;2023-02-15T01:57:52;38.42;;;16.70;;
58898;SDS011;44680;48.342;7.856;2023-02-15T02:00:17;36.55;;;16.77;;
58898;SDS011;44680;48.342;7.856;2023-02-15T02:02:43;40.95;;;18.50;;
58898;SDS011;44680;48.342;7.856;2023-02-15T02:05:10;37.25;;;16.05;;
58898;SDS011;44680;48.342;7.856;2023-02-15T02:07:40;35.55;;;16.52;;
58898;SDS011;44680;48.342;7.856;2023-02-15T02:10:08;41.70;;;14.95;;
58898;SDS011;44680;48.342;7.856;2023-02-15T02:12:36;46.10;;;16.63;;
58898;SDS011;44680;48.342;7.856;2023-02-15T02:15:02;68.63;;;15.88;;
58898;SDS011;44680;48.342;7.856;2023-02-15T02:20:15;39.58;;;15.60;;
58898;SDS011;44680;48.342;7.856;2023-02-15T02:26:06;45.47;;;16.63;;
58898;SDS011;44680;48.342;7.856;2023-02-15T02:34:29;59.38;;;15.93;;
58898;SDS011;44680;48.342;7.856;2023-02-15T02:36:58;48.35;;;14.65;;
58898;SDS011;44680;48.342;7.856;2023-02-15T02:42:35;49.28;;;15.00;;
58898;SDS011;44680;48.342;7.856;2023-02-15T02:45:16;49.28;;;14.85;;
58898;SDS011;44680;48.342;7.856;2023-02-15T02:47:47;42.72;;;15.38;;
58898;SDS011;44680;48.342;7.856;2023-02-15T02:50:15;56.80;;;16.02;;
58898;SDS011;44680;48.342;7.856;2023-02-15T02:52:43;72.43;;;16.25;;
58898;SDS011;44680;48.342;7.856;2023-02-15T02:58:08;57.20;;;15.82;;
58898;SDS011;44680;48.342;7.856;2023-02-15T03:00:40;45.95;;;15.07;;
58898;SDS011;44680;48.342;7.856;2023-02-15T03:03:11;33.72;;;15.88;;
58898;SDS011;44680;48.342;7.856;2023-02-15T03:05:40;36.42;;;15.50;;
58898;SDS011;44680;48.342;7.856;2023-02-15T03:08:08;45.17;;;15.18;;
58898;SDS011;44680;48.342;7.856;2023-02-15T03:10:35;43.90;;;15.48;;
58898;SDS011;44680;48.342;7.856;2023-02-15T03:13:02;58.47;;;14.93;;
58898;SDS011;44680;48.342;7.856;2023-02-15T03:15:31;35.33;;;14.25;;
58898;SDS011;44680;48.342;7.856;2023-02-15T03:18:18;62.55;;;14.25;;
58898;SDS011;44680;48.342;7.856;2023-02-15T03:20:46;41.40;;;13.88;;
58898;SDS011;44680;48.342;7.856;2023-02-15T03:23:16;29.98;;;15.38;;
58898;SDS011;44680;48.342;7.856;2023-02-15T03:25:50;54.42;;;14.52;;
58898;SDS011;44680;48.342;7.856;2023-02-15T03:28:40;37.90;;;14.20;;
58898;SDS011;44680;48.342;7.856;2023-02-15T03:31:06;35.35;;;14.73;;
58898;SDS011;44680;48.342;7.856;2023-02-15T03:33:34;36.65;;;15.85;;
58898;SDS011;44680;48.342;7.856;2023-02-15T03:41:45;42.25;;;16.25;;
58898;SDS011;44680;48.342;7.856;2023-02-15T03:44:19;42.95;;;15.93;;
58898;SDS011;44680;48.342;7.856;2023-02-15T03:46:51;36.88;;;16.35;;
58898;SDS011;44680;48.342;7.856;2023-02-15T03:49:22;54.33;;;16.70;;
58898;SDS011;44680;48.342;7.856;2023-02-15T03:51:50;46.05;;;16.65;;
58898;SDS011;44680;48.342;7.856;2023-02-15T03:54:25;57.58;;;16.52;;
58898;SDS011;44680;48.342;7.856;2023-02-15T03:57:15;42.80;;;16.45;;
58898;SDS011;44680;48.342;7.856;2023-02-15T04:00:09;61.25;;;16.45;;
58898;SDS011;44680;48.342;7.856;2023-02-15T04:05:40;46.10;;;18.25;;
58898;SDS011;44680;48.342;7.856;2023-02-15T04:08:07;38.67;;;16.15;;
58898;SDS011;44680;48.342;7.856;2023-02-15T04:10:32;47.40;;;17.10;;
58898;SDS011;44680;48.342;7.856;2023-02-15T04:13:16;36.63;;;16.63;;
58898;SDS011;44680;48.342;7.856;2023-02-15T04:15:42;37.13;;;16.08;;
58898;SDS011;44680;48.342;7.856;2023-02-15T04:18:26;50.38;;;15.32;;
58898;SDS011;44680;48.342;7.856;2023-02-15T04:21:10;41.95;;;15.73;;
58898;SDS011;44680;48.342;7.856;2023-02-15T04:23:53;39.70;;;16.20;;
58898;SDS011;44680;48.342;7.856;2023-02-15T04:26:37;31.63;;;15.93;;
58898;SDS011;44680;48.342;7.856;2023-02-15T04:29:03;39.95;;;17.40;;
58898;SDS011;44680;48.342;7.856;2023-02-15T04:31:28;39.95;;;16.02;;
58898;SDS011;44680;48.342;7.856;2023-02-15T04:33:53;56.70;;;16.35;;
58898;SDS011;44680;48.342;7.856;2023-02-15T04:36:19;42.90;;;16.42;;
58898;SDS011;44680;48.342;7.856;2023-02-15T04:38:44;41.20;;;16.33;;
58898;SDS011;44680;48.342;7.856;2023-02-15T04:41:09;58.00;;;15.85;;
58898;SDS011;44680;48.342;7.856;2023-02-15T04:43:37;38.15;;;16.52;;
58898;SDS011;44680;48.342;7.856;2023-02-15T04:46:02;33.63;;;15.07;;
58898;SDS011;44680;48.342;7.856;2023-02-15T04:48:27;41.28;;;16.42;;
58898;SDS011;44680;48.342;7.856;2023-02-15T04:50:53;31.27;;;15.15;;
58898;SDS011;44680;48.342;7.856;2023-02-15T04:53:18;39.42;;;15.75;;
58898;SDS011;44680;48.342;7.856;2023-02-15T04:55:43;31.45;;;14.82;;
58898;SDS011;44680;48.342;7.856;2023-02-15T04:58:09;34.28;;;15.60;;
58898;SDS011;44680;48.342;7.856;2023-02-15T05:00:34;34.90;;;15.63;;
58898;SDS011;44680;48.342;7.856;2023-02-15T05:02:59;37.42;;;14.80;;
58898;SDS011;44680;48.342;7.856;2023-02-15T05:05:25;37.33;;;15.32;;
58898;SDS011;44680;48.342;7.856;2023-02-15T05:07:50;31.05;;;15.38;;
58898;SDS011;44680;48.342;7.856;2023-02-15T05:10:15;39.95;;;14.82;;
58898;SDS011;44680;48.342;7.856;2023-02-15T05:12:41;34.75;;;15.52;;
58898;SDS011;44680;48.342;7.856;2023-02-15T05:15:06;37.47;;;15.27;;
58898;SDS011;44680;48.342;7.856;2023-02-15T05:17:32;39.45;;;17.20;;
58898;SDS011;44680;48.342;7.856;2023-02-15T05:19:57;34.45;;;14.70;;
58898;SDS011;44680;48.342;7.856;2023-02-15T05:22:22;36.10;;;15.25;;
58898;SDS011;44680;48.342;7.856;2023-02-15T05:24:48;53.35;;;17.02;;
58898;SDS011;44680;48.342;7.856;2023-02-15T05:27:32;41.35;;;15.65;;
58898;SDS011;44680;48.342;7.856;2023-02-15T05:30:16;80.25;;;22.30;;
58898;SDS011;44680;48.342;7.856;2023-02-15T05:32:41;40.65;;;16.95;;
58898;SDS011;44680;48.342;7.856;2023-02-15T05:35:07;59.70;;;20.00;;
58898;SDS011;44680;48.342;7.856;2023-02-15T05:37:32;48.90;;;18.17;;
58898;SDS011;44680;48.342;7.856;2023-02-15T05:39:58;48.20;;;17.95;;
58898;SDS011;44680;48.342;7.856;2023-02-15T05:42:23;48.85;;;17.08;;
58898;SDS011;44680;48.342;7.856;2023-02-15T05:44:48;46.78;;;17.70;;
58898;SDS011;44680;48.342;7.856;2023-02-15T05:47:14;42.85;;;19.17;;
58898;SDS011;44680;48.342;7.856;2023-02-15T05:49:39;57.05;;;18.10;;
58898;SDS011;44680;48.342;7.856;2023-02-15T05:52:04;37.53;;;16.30;;
58898;SDS011;44680;48.342;7.856;2023-02-15T05:54:30;58.20;;;16.75;;
58898;SDS011;44680;48.342;7.856;2023-02-15T05:56:55;40.20;;;16.70;;
58898;SDS011;44680;48.342;7.856;2023-02-15T05:59:20;40.03;;;17.45;;
58898;SDS011;44680;48.342;7.856;2023-02-15T06:01:46;52.67;;;17.20;;
58898;SDS011;44680;48.342;7.856;2023-02-15T06:04:12;37.58;;;17.55;;
58898;SDS011;44680;48.342;7.856;2023-02-15T06:06:37;42.33;;;17.27;;
58898;SDS011;44680;48.342;7.856;2023-02-15T06:09:02;33.85;;;16.67;;
58898;SDS011;44680;48.342;7.856;2023-02-15T06:11:28;37.78;;;16.30;;
58898;SDS011;44680;48.342;7.856;2023-02-15T06:13:53;35.00;;;16.08;;
58898;SDS011;44680;48.342;7.856;2023-02-15T06:16:18;31.00;;;15.05;;
58898;SDS011;44680;48.342;7.856;2023-02-15T06:18:44;33.47;;;16.00;;
58898;SDS011;44680;48.342;7.856;2023-02-15T06:21:09;38.63;;;18.05;;
58898;SDS011;44680;48.342;7.856;2023-02-15T06:23:34;40.15;;;17.10;;
58898;SDS011;44680;48.342;7.856;2023-02-15T06:26:00;44.55;;;16.92;;
58898;SDS011;44680;48.342;7.856;2023-02-15T06:28:25;37.50;;;18.00;;
58898;SDS011;44680;48.342;7.856;2023-02-15T06:30:50;35.95;;;18.10;;
58898;SDS011;44680;48.342;7.856;2023-02-15T06:33:16;39.30;;;17.27;;
58898;SDS011;44680;48.342;7.856;2023-02-15T06:35:41;49.42;;;20.33;;
58898;SDS011;44680;48.342;7.856;2023-02-15T06:38:06;44.00;;;17.42;;
58898;SDS011;44680;48.342;7.856;2023-02-15T06:40:32;35.47;;;16.50;;
58898;SDS011;44680;48.342;7.856;2023-02-15T06:42:57;42.67;;;17.85;;
58898;SDS011;44680;48.342;7.856;2023-02-15T06:45:22;37.55;;;16.92;;
58898;SDS011;44680;48.342;7.856;2023-02-15T06:47:48;32.35;;;16.58;;
58898;SDS011;44680;48.342;7.856;2023-02-15T06:50:13;41.55;;;18.45;;
58898;SDS011;44680;48.342;7.856;2023-02-15T06:52:38;45.08;;;17.40;;
58898;SDS011;44680;48.342;7.856;2023-02-15T06:55:04;36.42;;;17.23;;
58898;SDS011;44680;48.342;7.856;2023-02-15T06:57:29;38.63;;;16.77;;
58898;SDS011;44680;48.342;7.856;2023-02-15T06:59:55;38.90;;;16.88;;
58898;SDS011;44680;48.342;7.856;2023-02-15T07:02:20;69.30;;;17.52;;
58898;SDS011;44680;48.342;7.856;2023-02-15T07:04:45;57.25;;;15.98;;
58898;SDS011;44680;48.342;7.856;2023-02-15T07:07:11;35.60;;;16.17;;
58898;SDS011;44680;48.342;7.856;2023-02-15T07:09:37;44.90;;;18.45;;
58898;SDS011;44680;48.342;7.856;2023-02-15T07:12:02;41.00;;;18.75;;
58898;SDS011;44680;48.342;7.856;2023-02-15T07:14:47;33.22;;;16.88;;
58898;SDS011;44680;48.342;7.856;2023-02-15T07:17:12;34.30;;;16.45;;
58898;SDS011;44680;48.342;7.856;2023-02-15T07:19:37;35.22;;;16.85;;
58898;SDS011;44680;48.342;7.856;2023-02-15T07:22:03;41.38;;;17.58;;
58898;SDS011;44680;48.342;7.856;2023-02-15T07:24:29;36.35;;;17.33;;
58898;SDS011;44680;48.342;7.856;2023-02-15T07:26:55;43.80;;;16.02;;
58898;SDS011;44680;48.342;7.856;2023-02-15T07:29:20;40.28;;;18.25;;
58898;SDS011;44680;48.342;7.856;2023-02-15T07:31:45;34.05;;;16.95;;
58898;SDS011;44680;48.342;7.856;2023-02-15T07:34:11;61.03;;;18.00;;
58898;SDS011;44680;48.342;7.856;2023-02-15T07:36:36;33.80;;;14.38;;
58898;SDS011;44680;48.342;7.856;2023-02-15T07:39:02;32.72;;;14.63;;
58898;SDS011;44680;48.342;7.856;2023-02-15T07:41:27;29.50;;;14.05;;
58898;SDS011;44680;48.342;7.856;2023-02-15T07:43:52;29.98;;;14.38;;
58898;SDS011;44680;48.342;7.856;2023-02-15T07:46:18;29.92;;;13.55;;
58898;SDS011;44680;48.342;7.856;2023-02-15T07:48:44;33.08;;;15.52;;
58898;SDS011;44680;48.342;7.856;2023-02-15T07:51:10;32.17;;;15.57;;
58898;SDS011;44680;48.342;7.856;2023-02-15T07:53:36;28.17;;;14.40;;
58898;SDS011;44680;48.342;7.856;2023-02-15T07:56:04;25.85;;;13.23;;
58898;SDS011;44680;48.342;7.856;2023-02-15T07:58:31;27.98;;;14.13;;
58898;SDS011;44680;48.342;7.856;2023-02-15T08:01:15;32.92;;;16.58;;
58898;SDS011;44680;48.342;7.856;2023-02-15T08:03:42;29.58;;;15.55;;
58898;SDS011;44680;48.342;7.856;2023-02-15T08:06:07;30.52;;;14.20;;
58898;SDS011;44680;48.342;7.856;2023-02-15T08:08:33;31.38;;;15.18;;
58898;SDS011;44680;48.342;7.856;2023-02-15T08:11:00;29.52;;;14.40;;
58898;SDS011;44680;48.342;7.856;2023-02-15T08:13:51;29.42;;;14.60;;
58898;SDS011;44680;48.342;7.856;2023-02-15T08:18:46;32.90;;;15.60;;
58898;SDS011;44680;48.342;7.856;2023-02-15T08:21:12;32.42;;;15.65;;
58898;SDS011;44680;48.342;7.856;2023-02-15T08:23:38;32.03;;;16.63;;
58898;SDS011;44680;48.342;7.856;2023-02-15T08:26:03;31.83;;;16.13;;
58898;SDS011;44680;48.342;7.856;2023-02-15T08:28:29;32.72;;;15.55;;
58898;SDS011;44680;48.342;7.856;2023-02-15T08:30:54;29.20;;;14.40;;
58898;SDS011;44680;48.342;7.856;2023-02-15T08:33:20;39.72;;;15.98;;
58898;SDS011;44680;48.342;7.856;2023-02-15T08:35:45;46.30;;;16.40;;
58898;SDS011;44680;48.342;7.856;2023-02-15T08:38:10;32.95;;;14.85;;
58898;SDS011;44680;48.342;7.856;2023-02-15T08:40:36;29.90;;;15.68;;
58898;SDS011;44680;48.342;7.856;2023-02-15T08:43:02;34.22;;;16.23;;
58898;SDS011;44680;48.342;7.856;2023-02-15T08:45:28;31.45;;;15.65;;
58898;SDS011;44680;48.342;7.856;2023-02-15T08:47:53;37.55;;;19.38;;
58898;SDS011;44680;48.342;7.856;2023-02-15T08:50:18;37.22;;;16.40;;
58898;SDS011;44680;48.342;7.856;2023-02-15T08:52:44;40.78;;;15.90;;
58898;SDS011;44680;48.342;7.856;2023-02-15T08:55:09;28.67;;;15.10;;
58898;SDS011;44680;48.342;7.856;2023-02-15T08:57:34;31.30;;;15.48;;
58898;SDS011;44680;48.342;7.856;2023-02-15T09:00:00;34.97;;;15.80;;
58898;SDS011;44680;48.342;7.856;2023-02-15T09:02:25;36.42;;;14.68;;
58898;SDS011;44680;48.342;7.856;2023-02-15T09:04:50;32.08;;;14.05;;
58898;SDS011;44680;48.342;7.856;2023-02-15T09:07:17;30.70;;;13.82;;
58898;SDS011;44680;48.342;7.856;2023-02-15T09:09:43;41.60;;;15.30;;
58898;SDS011;44680;48.342;7.856;2023-02-15T09:12:10;33.53;;;15.50;;
58898;SDS011;44680;48.342;7.856;2023-02-15T09:14:35;34.60;;;15.75;;
58898;SDS011;44680;48.342;7.856;2023-02-15T09:17:01;43.22;;;16.92;;
58898;SDS011;44680;48.342;7.856;2023-02-15T09:19:26;34.28;;;17.52;;
58898;SDS011;44680;48.342;7.856;2023-02-15T09:21:51;38.05;;;18.33;;
58898;SDS011;44680;48.342;7.856;2023-02-15T09:24:17;33.50;;;17.40;;
58898;SDS011;44680;48.342;7.856;2023-02-15T09:26:44;36.83;;;17.95;;
58898;SDS011;44680;48.342;7.856;2023-02-15T09:29:10;31.42;;;15.60;;
58898;SDS011;44680;48.342;7.856;2023-02-15T09:31:38;29.95;;;14.75;;
58898;SDS011;44680;48.342;7.856;2023-02-15T09:34:06;30.92;;;16.00;;
58898;SDS011;44680;48.342;7.856;2023-02-15T09:36:32;33.53;;;16.98;;
58898;SDS011;44680;48.342;7.856;2023-02-15T09:39:19;42.97;;;18.10;;
58898;SDS011;44680;48.342;7.856;2023-02-15T09:47:07;36.45;;;18.00;;
58898;SDS011;44680;48.342;7.856;2023-02-15T10:02:54;39.92;;;20.70;;
58898;SDS011;44680;48.342;7.856;2023-02-15T10:08:19;42.72;;;20.42;;
58898;SDS011;44680;48.342;7.856;2023-02-15T10:11:13;44.50;;;23.03;;
58898;SDS011;44680;48.342;7.856;2023-02-15T10:14:04;42.45;;;21.30;;
58898;SDS011;44680;48.342;7.856;2023-02-15T10:16:57;47.25;;;22.30;;
58898;SDS011;44680;48.342;7.856;2023-02-15T10:19:41;42.17;;;23.42;;
58898;SDS011;44680;48.342;7.856;2023-02-15T10:27:46;43.60;;;22.30;;
58898;SDS011;44680;48.342;7.856;2023-02-15T10:32:59;44.13;;;21.88;;
58898;SDS011;44680;48.342;7.856;2023-02-15T10:35:32;57.22;;;26.95;;
58898;SDS011;44680;48.342;7.856;2023-02-15T10:38:23;43.95;;;22.08;;
58898;SDS011;44680;48.342;7.856;2023-02-15T10:41:06;43.10;;;22.13;;
58898;SDS011;44680;48.342;7.856;2023-02-15T10:44:12;44.15;;;23.05;;
58898;SDS011;44680;48.342;7.856;2023-02-15T10:49:30;43.70;;;22.67;;
58898;SDS011;44680;48.342;7.856;2023-02-15T10:52:10;48.00;;;24.42;;
58898;SDS011;44680;48.342;7.856;2023-02-15T10:54:45;47.88;;;24.55;;
58898;SDS011;44680;48.342;7.856;2023-02-15T10:57:29;51.30;;;25.77;;
58898;SDS011;44680;48.342;7.856;2023-02-15T11:00:05;49.75;;;24.15;;
58898;SDS011;44680;48.342;7.856;2023-02-15T11:02:46;48.67;;;25.55;;
58898;SDS011;44680;48.342;7.856;2023-02-15T11:05:41;50.20;;;25.10;;
58898;SDS011;44680;48.342;7.856;2023-02-15T11:08:08;46.30;;;25.40;;
58898;SDS011;44680;48.342;7.856;2023-02-15T11:10:37;46.45;;;24.45;;
58898;SDS011;44680;48.342;7.856;2023-02-15T11:13:07;45.78;;;23.30;;
58898;SDS011;44680;48.342;7.856;2023-02-15T11:15:36;45.88;;;23.60;;
58898;SDS011;44680;48.342;7.856;2023-02-15T11:18:13;44.33;;;23.00;;
58898;SDS011;44680;48.342;7.856;2023-02-15T11:23:25;46.45;;;23.58;;
58898;SDS011;44680;48.342;7.856;2023-02-15T11:25:56;43.03;;;24.50;;
58898;SDS011;44680;48.342;7.856;2023-02-15T11:28:25;49.70;;;24.75;;
58898;SDS011;44680;48.342;7.856;2023-02-15T11:30:55;45.22;;;24.95;;
58898;SDS011;44680;48.342;7.856;2023-02-15T11:33:34;44.67;;;24.02;;
58898;SDS011;44680;48.342;7.856;2023-02-15T11:36:07;46.70;;;24.17;;
58898;SDS011;44680;48.342;7.856;2023-02-15T11:38:37;46.47;;;23.80;;
58898;SDS011;44680;48.342;7.856;2023-02-15T11:41:12;44.70;;;23.83;;
58898;SDS011;44680;48.342;7.856;2023-02-15T11:46:06;46.65;;;24.77;;
58898;SDS011;44680;48.342;7.856;2023-02-15T11:48:32;47.55;;;25.23;;
58898;SDS011;44680;48.342;7.856;2023-02-15T11:50:58;46.63;;;25.38;;
58898;SDS011;44680;48.342;7.856;2023-02-15T11:53:24;44.72;;;24.67;;
58898;SDS011;44680;48.342;7.856;2023-02-15T11:55:53;46.35;;;25.23;;
58898;SDS011;44680;48.342;7.856;2023-02-15T12:04:08;43.25;;;22.33;;
58898;SDS011;44680;48.342;7.856;2023-02-15T12:06:41;47.28;;;24.88;;
58898;SDS011;44680;48.342;7.856;2023-02-15T12:09:14;43.28;;;23.90;;
58898;SDS011;44680;48.342;7.856;2023-02-15T12:11:41;44.50;;;23.83;;
58898;SDS011;44680;48.342;7.856;2023-02-15T12:14:13;43.97;;;23.95;;
58898;SDS011;44680;48.342;7.856;2023-02-15T12:16:43;46.47;;;23.58;;
58898;SDS011;44680;48.342;7.856;2023-02-15T12:21:49;44.85;;;23.33;;
58898;SDS011;44680;48.342;7.856;2023-02-15T12:24:26;42.00;;;22.98;;
58898;SDS011;44680;48.342;7.856;2023-02-15T12:27:27;45.35;;;24.60;;
58898;SDS011;44680;48.342;7.856;2023-02-15T12:29:55;49.67;;;25.50;;
58898;SDS011;44680;48.342;7.856;2023-02-15T12:32:27;46.67;;;24.48;;
58898;SDS011;44680;48.342;7.856;2023-02-15T12:37:39;46.97;;;24.77;;
58898;SDS011;44680;48.342;7.856;2023-02-15T12:40:21;46.28;;;26.05;;
58898;SDS011;44680;48.342;7.856;2023-02-15T12:42:49;45.92;;;25.27;;
58898;SDS011;44680;48.342;7.856;2023-02-15T12:45:25;46.58;;;24.45;;
58898;SDS011;44680;48.342;7.856;2023-02-15T12:50:38;49.03;;;25.30;;
58898;SDS011;44680;48.342;7.856;2023-02-15T12:53:14;45.60;;;24.83;;
58898;SDS011;44680;48.342;7.856;2023-02-15T12:55:54;50.28;;;24.92;;
58898;SDS011;44680;48.342;7.856;2023-02-15T12:58:28;50.58;;;26.40;;
58898;SDS011;44680;48.342;7.856;2023-02-15T13:03:49;49.25;;;25.02;;
58898;SDS011;44680;48.342;7.856;2023-02-15T13:06:17;50.20;;;28.70;;
58898;SDS011;44680;48.342;7.856;2023-02-15T13:08:47;52.95;;;28.50;;
58898;SDS011;44680;48.342;7.856;2023-02-15T13:11:20;50.38;;;26.17;;
58898;SDS011;44680;48.342;7.856;2023-02-15T13:13:51;48.28;;;25.85;;
58898;SDS011;44680;48.342;7.856;2023-02-15T13:16:19;52.30;;;27.20;;
58898;SDS011;44680;48.342;7.856;2023-02-15T13:18:53;49.17;;;26.98;;
58898;SDS011;44680;48.342;7.856;2023-02-15T13:21:20;49.13;;;25.52;;
58898;SDS011;44680;48.342;7.856;2023-02-15T13:23:57;48.47;;;26.00;;
58898;SDS011;44680;48.342;7.856;2023-02-15T13:26:26;51.28;;;26.25;;
58898;SDS011;44680;48.342;7.856;2023-02-15T13:28:53;51.83;;;26.65;;
58898;SDS011;44680;48.342;7.856;2023-02-15T13:31:20;44.38;;;24.65;;
58898;SDS011;44680;48.342;7.856;2023-02-15T13:33:53;43.35;;;23.83;;
58898;SDS011;44680;48.342;7.856;2023-02-15T13:39:19;45.42;;;22.92;;
58898;SDS011;44680;48.342;7.856;2023-02-15T14:09:38;47.13;;;24.53;;
58898;SDS011;44680;48.342;7.856;2023-02-15T14:15:08;49.17;;;26.30;;
58898;SDS011;44680;48.342;7.856;2023-02-15T14:17:50;45.65;;;24.65;;
58898;SDS011;44680;48.342;7.856;2023-02-15T14:20:22;47.60;;;25.70;;
58898;SDS011;44680;48.342;7.856;2023-02-15T14:23:19;50.10;;;25.33;;
58898;SDS011;44680;48.342;7.856;2023-02-15T14:29:10;42.80;;;23.88;;
58898;SDS011;44680;48.342;7.856;2023-02-15T14:31:47;47.25;;;25.08;;
58898;SDS011;44680;48.342;7.856;2023-02-15T14:34:18;46.25;;;25.27;;
58898;SDS011;44680;48.342;7.856;2023-02-15T14:36:47;43.58;;;23.70;;
58898;SDS011;44680;48.342;7.856;2023-02-15T14:39:23;43.88;;;24.58;;
58898;SDS011;44680;48.342;7.856;2023-02-15T14:42:24;35.78;;;18.70;;
58898;SDS011;44680;48.342;7.856;2023-02-15T14:47:48;42.20;;;22.02;;
58898;SDS011;44680;48.342;7.856;2023-02-15T14:55:39;42.13;;;22.30;;
58898;SDS011;44680;48.342;7.856;2023-02-15T14:58:09;36.85;;;20.85;;
58898;SDS011;44680;48.342;7.856;2023-02-15T15:00:36;36.85;;;20.00;;
58898;SDS011;44680;48.342;7.856;2023-02-15T15:03:09;42.13;;;22.02;;
58898;SDS011;44680;48.342;7.856;2023-02-15T15:05:36;42.97;;;22.70;;
58898;SDS011;44680;48.342;7.856;2023-02-15T15:08:22;42.47;;;23.20;;
58898;SDS011;44680;48.342;7.856;2023-02-15T15:10:51;43.67;;;24.65;;
58898;SDS011;44680;48.342;7.856;2023-02-15T15:15:54;45.25;;;23.33;;
58898;SDS011;44680;48.342;7.856;2023-02-15T15:21:08;44.42;;;25.75;;
58898;SDS011;44680;48.342;7.856;2023-02-15T15:23:41;43.47;;;24.15;;
58898;SDS011;44680;48.342;7.856;2023-02-15T15:26:25;43.30;;;23.85;;
58898;SDS011;44680;48.342;7.856;2023-02-15T15:28:53;45.20;;;24.95;;
58898;SDS011;44680;48.342;7.856;2023-02-15T15:42:11;46.40;;;25.02;;
58898;SDS011;44680;48.342;7.856;2023-02-15T15:50:31;49.35;;;26.65;;
58898;SDS011;44680;48.342;7.856;2023-02-15T15:52:58;48.05;;;24.88;;
58898;SDS011;44680;48.342;7.856;2023-02-15T15:55:28;49.80;;;25.83;;
58898;SDS011;44680;48.342;7.856;2023-02-15T15:58:02;50.70;;;27.63;;
58898;SDS011;44680;48.342;7.856;2023-02-15T16:00:41;52.83;;;27.27;;
58898;SDS011;44680;48.342;7.856;2023-02-15T16:03:21;51.33;;;28.02;;
58898;SDS011;44680;48.342;7.856;2023-02-15T16:05:48;49.72;;;26.17;;
58898;SDS011;44680;48.342;7.856;2023-02-15T16:08:33;48.75;;;27.17;;
58898;SDS011;44680;48.342;7.856;2023-02-15T16:10:59;48.28;;;25.20;;
58898;SDS011;44680;48.342;7.856;2023-02-15T16:13:26;46.97;;;25.17;;
58898;SDS011;44680;48.342;7.856;2023-02-15T16:15:52;46.80;;;25.88;;
58898;SDS011;44680;48.342;7.856;2023-02-15T16:18:23;46.92;;;25.67;;
58898;SDS011;44680;48.342;7.856;2023-02-15T16:20:51;46.75;;;26.73;;
58898;SDS011;44680;48.342;7.856;2023-02-15T16:26:23;48.78;;;26.23;;
58898;SDS011;44680;48.342;7.856;2023-02-15T16:29:15;44.05;;;25.38;;
58898;SDS011;44680;48.342;7.856;2023-02-15T16:31:42;47.35;;;26.60;;
58898;SDS011;44680;48.342;7.856;2023-02-15T16:34:17;46.13;;;25.25;;
58898;SDS011;44680;48.342;7.856;2023-02-15T16:36:42;46.72;;;27.02;;
58898;SDS011;44680;48.342;7.856;2023-02-15T16:39:09;48.80;;;27.20;;
58898;SDS011;44680;48.342;7.856;2023-02-15T16:41:42;49.90;;;27.73;;
58898;SDS011;44680;48.342;7.856;2023-02-15T16:44:18;52.75;;;28.88;;
58898;SDS011;44680;48.342;7.856;2023-02-15T16:46:46;52.93;;;27.87;;
58898;SDS011;44680;48.342;7.856;2023-02-15T16:51:45;49.70;;;27.45;;
58898;SDS011;44680;48.342;7.856;2023-02-15T16:54:20;51.35;;;27.85;;
58898;SDS011;44680;48.342;7.856;2023-02-15T16:56:46;55.08;;;28.25;;
58898;SDS011;44680;48.342;7.856;2023-02-15T16:59:28;48.53;;;27.80;;
58898;SDS011;44680;48.342;7.856;2023-02-15T17:01:56;58.30;;;30.23;;
58898;SDS011;44680;48.342;7.856;2023-02-15T17:07:48;63.80;;;34.22;;
58898;SDS011;44680;48.342;7.856;2023-02-15T17:09:56;58.25;;;30.75;;
58898;SDS011;44680;48.342;7.856;2023-02-15T17:15:31;51.60;;;30.02;;
58898;SDS011;44680;48.342;7.856;2023-02-15T17:18:00;57.67;;;30.38;;
58898;SDS011;44680;48.342;7.856;2023-02-15T17:20:28;53.40;;;30.50;;
58898;SDS011;44680;48.342;7.856;2023-02-15T17:22:53;57.25;;;31.50;;
58898;SDS011;44680;48.342;7.856;2023-02-15T17:25:20;54.13;;;31.88;;